Time;durP1;ratioP1;P1;durP2;ratioP2;P2;SDS_P1;SDS_P2;PMS_P1;PMS_P2;Temp;Humidity;BMP_temperature;BMP_pressure;BME280_temperature;BME280_humidity;BME280_pressure;Samples;Min_cycle;Max_cycle;Signal;HPM_P1;HPM_P2
2022/07/15 00:01:40;;;;;;;1.92;0.80;;;;;;;;;;4978761;28;20066;-65
2022/07/15 00:04:06;;;;;;;2.53;0.82;;;;;;;;;;4941858;28;20054;-65
2022/07/15 00:06:33;;;;;;;2.83;0.80;;;;;;;;;;4939811;28;20052;-63
2022/07/15 00:09:00;;;;;;;3.92;0.90;;;;;;;;;;4932345;29;20051;-65
2022/07/15 00:11:27;;;;;;;1.00;0.68;;;;;;;;;;4941451;28;20055;-65
2022/07/15 00:13:55;;;;;;;2.63;1.00;;;;;;;;;;4950363;28;20059;-65
2022/07/15 00:16:22;;;;;;;2.05;0.80;;;;;;;;;;4941337;28;20047;-64
2022/07/15 00:18:48;;;;;;;3.60;1.10;;;;;;;;;;4950374;28;20055;-64
2022/07/15 00:21:15;;;;;;;5.45;1.13;;;;;;;;;;4946854;28;20047;-65
2022/07/15 00:23:41;;;;;;;5.40;1.45;;;;;;;;;;4939164;28;20047;-65
2022/07/15 00:26:08;;;;;;;4.07;1.15;;;;;;;;;;4938594;29;20116;-64
2022/07/15 00:28:35;;;;;;;5.07;1.20;;;;;;;;;;4943853;28;20053;-65
2022/07/15 00:31:03;;;;;;;3.47;0.80;;;;;;;;;;4945574;29;20109;-65
2022/07/15 00:33:30;;;;;;;1.67;0.90;;;;;;;;;;4936302;28;20047;-65
2022/07/15 00:35:56;;;;;;;8.02;1.50;;;;;;;;;;4941665;29;20055;-65
2022/07/15 00:38:23;;;;;;;3.63;1.05;;;;;;;;;;4935700;28;20051;-65
2022/07/15 00:40:50;;;;;;;3.55;1.20;;;;;;;;;;4958565;28;20078;-64
2022/07/15 00:43:18;;;;;;;4.63;1.10;;;;;;;;;;4941045;28;20046;-65
2022/07/15 00:45:45;;;;;;;4.95;1.13;;;;;;;;;;4939053;28;20051;-63
2022/07/15 00:48:13;;;;;;;3.28;1.05;;;;;;;;;;4954580;28;20035;-63
2022/07/15 00:50:40;;;;;;;2.75;1.10;;;;;;;;;;4941265;28;20050;-62
2022/07/15 00:53:08;;;;;;;4.68;1.02;;;;;;;;;;4950440;28;20055;-65
2022/07/15 00:55:37;;;;;;;4.22;1.17;;;;;;;;;;4934425;28;20165;-65
2022/07/15 00:58:04;;;;;;;5.50;0.90;;;;;;;;;;4937462;29;21134;-64
2022/07/15 01:00:32;;;;;;;1.95;0.73;;;;;;;;;;4921613;28;20059;-63
2022/07/15 01:03:00;;;;;;;2.90;0.80;;;;;;;;;;4937528;28;20054;-65
2022/07/15 01:05:28;;;;;;;2.03;0.82;;;;;;;;;;4946210;28;20088;-65
2022/07/15 01:07:54;;;;;;;3.35;1.00;;;;;;;;;;4948909;28;20085;-65
2022/07/15 01:10:23;;;;;;;2.53;0.85;;;;;;;;;;4945439;28;20094;-64
2022/07/15 01:12:51;;;;;;;4.85;0.95;;;;;;;;;;4957543;28;20142;-65
2022/07/15 01:15:18;;;;;;;1.73;0.77;;;;;;;;;;4955514;28;20062;-65
2022/07/15 01:17:45;;;;;;;2.40;1.00;;;;;;;;;;4961448;28;20062;-65
2022/07/15 01:20:13;;;;;;;2.35;0.90;;;;;;;;;;4963108;28;20055;-65
2022/07/15 01:22:41;;;;;;;2.25;0.88;;;;;;;;;;4955251;28;20114;-62
2022/07/15 01:25:08;;;;;;;3.10;1.00;;;;;;;;;;4963138;28;20062;-62
2022/07/15 01:27:35;;;;;;;2.78;0.98;;;;;;;;;;4953672;28;20046;-64
2022/07/15 01:30:02;;;;;;;3.03;1.10;;;;;;;;;;4957719;28;20058;-65
2022/07/15 01:32:29;;;;;;;3.45;0.90;;;;;;;;;;4952793;28;20050;-65
2022/07/15 01:34:55;;;;;;;4.75;0.82;;;;;;;;;;4958323;28;20046;-64
2022/07/15 01:37:22;;;;;;;2.85;0.98;;;;;;;;;;4957224;28;20061;-64
2022/07/15 01:39:51;;;;;;;2.35;0.90;;;;;;;;;;4958841;28;20105;-65
2022/07/15 01:42:18;;;;;;;3.45;0.77;;;;;;;;;;4964588;28;20062;-65
2022/07/15 01:44:44;;;;;;;2.65;1.13;;;;;;;;;;4957885;28;20050;-65
2022/07/15 01:47:11;;;;;;;5.80;0.93;;;;;;;;;;4957972;28;20058;-65
2022/07/15 01:49:39;;;;;;;1.48;0.77;;;;;;;;;;4950532;28;20061;-65
2022/07/15 01:52:09;;;;;;;;;;;;;;;;;;4961921;28;20165;-65
2022/07/15 01:54:35;;;;;;;3.83;0.88;;;;;;;;;;4951989;28;19929;-63
2022/07/15 01:57:03;;;;;;;3.75;0.80;;;;;;;;;;4965810;28;20051;-65
2022/07/15 01:59:30;;;;;;;2.38;0.93;;;;;;;;;;4963602;28;20057;-63
2022/07/15 02:01:57;;;;;;;2.90;1.00;;;;;;;;;;4962921;28;20054;-63
2022/07/15 02:04:24;;;;;;;2.92;0.98;;;;;;;;;;4970470;28;20062;-63
2022/07/15 02:06:51;;;;;;;2.45;0.90;;;;;;;;;;4963069;28;20046;-63
2022/07/15 02:09:20;;;;;;;2.45;0.98;;;;;;;;;;4971106;28;20058;-64
2022/07/15 02:11:46;;;;;;;;;;;;;;;;;;4959710;28;20059;-64
2022/07/15 02:14:14;;;;;;;1.67;0.70;;;;;;;;;;4951640;28;19925;-64
2022/07/15 02:16:41;;;;;;;3.60;1.00;;;;;;;;;;4949933;28;20066;-63
2022/07/15 02:19:09;;;;;;;3.17;0.90;;;;;;;;;;4949484;28;20075;-64
2022/07/15 02:21:35;;;;;;;2.40;0.83;;;;;;;;;;4951371;28;20079;-64
2022/07/15 02:24:02;;;;;;;3.47;1.00;;;;;;;;;;4962697;28;20301;-65
2022/07/15 02:26:29;;;;;;;3.75;0.90;;;;;;;;;;4971237;28;20066;-65
2022/07/15 02:28:55;;;;;;;2.60;1.08;;;;;;;;;;4965526;28;20050;-64
2022/07/15 02:31:23;;;;;;;3.60;0.90;;;;;;;;;;4965763;28;20058;-64
2022/07/15 02:33:51;;;;;;;3.38;1.10;;;;;;;;;;4964422;28;20144;-63
2022/07/15 02:36:17;;;;;;;2.10;0.80;;;;;;;;;;4970359;28;20050;-65
2022/07/15 02:38:45;;;;;;;1.92;0.80;;;;;;;;;;4964813;28;20046;-64
2022/07/15 02:41:12;;;;;;;2.75;0.93;;;;;;;;;;4987318;28;20066;-62
2022/07/15 02:43:41;;;;;;;2.83;0.82;;;;;;;;;;4978108;28;20068;-64
2022/07/15 02:46:08;;;;;;;4.57;0.90;;;;;;;;;;4987148;28;20053;-64
2022/07/15 02:48:36;;;;;;;2.70;1.00;;;;;;;;;;4975223;28;20054;-65
2022/07/15 02:51:03;;;;;;;3.88;1.00;;;;;;;;;;4952420;28;20050;-63
2022/07/15 02:53:30;;;;;;;2.67;0.90;;;;;;;;;;4970865;28;20076;-63
2022/07/15 02:55:58;;;;;;;2.88;0.98;;;;;;;;;;4977187;28;20082;-62
2022/07/15 02:58:24;;;;;;;2.42;0.85;;;;;;;;;;4974197;28;20116;-63
2022/07/15 03:00:51;;;;;;;2.28;0.77;;;;;;;;;;4971333;28;20078;-65
2022/07/15 03:03:18;;;;;;;3.85;0.90;;;;;;;;;;4983135;28;20061;-64
2022/07/15 03:05:46;;;;;;;1.85;0.98;;;;;;;;;;4984485;28;20141;-65
2022/07/15 03:08:12;;;;;;;1.73;0.80;;;;;;;;;;4982937;28;20058;-63
2022/07/15 03:10:39;;;;;;;4.75;1.08;;;;;;;;;;4984522;28;20065;-64
2022/07/15 03:13:06;;;;;;;5.97;0.98;;;;;;;;;;4983128;28;20061;-63
2022/07/15 03:15:32;;;;;;;2.10;0.80;;;;;;;;;;4985837;28;20064;-65
2022/07/15 03:17:59;;;;;;;2.38;0.70;;;;;;;;;;4983480;28;20050;-65
2022/07/15 03:20:25;;;;;;;3.83;1.00;;;;;;;;;;4984036;28;20061;-65
2022/07/15 03:22:53;;;;;;;1.20;0.65;;;;;;;;;;4982466;28;20061;-64
2022/07/15 03:25:20;;;;;;;2.65;0.80;;;;;;;;;;4984708;28;20117;-65
2022/07/15 03:27:47;;;;;;;3.10;0.80;;;;;;;;;;4989402;28;20054;-65
2022/07/15 03:30:15;;;;;;;1.40;0.70;;;;;;;;;;4983480;28;20080;-65
2022/07/15 03:32:41;;;;;;;2.65;0.70;;;;;;;;;;4989893;28;20050;-64
2022/07/15 03:35:09;;;;;;;1.88;0.80;;;;;;;;;;4978351;28;20057;-65
2022/07/15 03:37:35;;;;;;;5.97;0.80;;;;;;;;;;4991611;28;20067;-65
2022/07/15 03:40:05;;;;;;;3.90;0.85;;;;;;;;;;4991021;28;20082;-63
2022/07/15 03:42:31;;;;;;;2.65;0.80;;;;;;;;;;4986174;28;20046;-65
2022/07/15 03:44:58;;;;;;;2.13;0.70;;;;;;;;;;4982578;28;20055;-65
2022/07/15 03:47:26;;;;;;;2.22;0.90;;;;;;;;;;4985141;28;20058;-64
2022/07/15 03:49:54;;;;;;;2.45;0.75;;;;;;;;;;4992828;28;20061;-65
2022/07/15 03:52:21;;;;;;;1.80;0.82;;;;;;;;;;4977405;28;20057;-64
2022/07/15 03:54:47;;;;;;;3.80;0.90;;;;;;;;;;4990801;28;20137;-64
2022/07/15 03:57:15;;;;;;;4.47;0.80;;;;;;;;;;4979909;28;20060;-64
2022/07/15 03:59:42;;;;;;;2.08;0.70;;;;;;;;;;4989273;28;20073;-65
2022/07/15 04:02:09;;;;;;;1.10;0.70;;;;;;;;;;4977377;28;20061;-65
2022/07/15 04:04:35;;;;;;;2.05;0.80;;;;;;;;;;4988151;28;20054;-64
2022/07/15 04:07:02;;;;;;;2.72;0.77;;;;;;;;;;4977663;28;20054;-62
2022/07/15 04:09:29;;;;;;;3.90;0.90;;;;;;;;;;4988792;28;20058;-62
2022/07/15 04:11:55;;;;;;;1.00;0.57;;;;;;;;;;4982254;28;20106;-64
2022/07/15 04:14:23;;;;;;;3.08;0.73;;;;;;;;;;4989132;28;20080;-65
2022/07/15 04:16:50;;;;;;;1.40;0.70;;;;;;;;;;4976267;28;20152;-63
2022/07/15 04:19:17;;;;;;;4.50;1.00;;;;;;;;;;4988240;28;20057;-63
2022/07/15 04:21:46;;;;;;;0.43;0.40;;;;;;;;;;4983988;28;20148;-62
2022/07/15 04:24:12;;;;;;;1.45;0.70;;;;;;;;;;4964693;28;20058;-62
2022/07/15 04:26:39;;;;;;;2.78;0.70;;;;;;;;;;4968984;28;20051;-62
2022/07/15 04:29:06;;;;;;;2.17;0.73;;;;;;;;;;4966905;28;20066;-62
2022/07/15 04:31:34;;;;;;;5.35;0.77;;;;;;;;;;4970961;28;20135;-63
2022/07/15 04:34:01;;;;;;;1.25;0.60;;;;;;;;;;4968359;28;20062;-62
2022/07/15 04:36:27;;;;;;;4.75;1.10;;;;;;;;;;4988222;28;20042;-63
2022/07/15 04:38:54;;;;;;;3.67;0.77;;;;;;;;;;4975717;28;20054;-64
2022/07/15 04:41:20;;;;;;;1.10;0.68;;;;;;;;;;4988158;28;20065;-64
2022/07/15 04:43:47;;;;;;;2.50;1.00;;;;;;;;;;4983171;28;20050;-64
2022/07/15 04:46:13;;;;;;;2.70;0.80;;;;;;;;;;4988606;28;20062;-64
2022/07/15 04:51:25;;;;;;;2.22;0.85;;;;;;;;;;4984932;28;20054;-65
2022/07/15 04:53:52;;;;;;;5.10;1.10;;;;;;;;;;4975210;28;20050;-64
2022/07/15 04:56:18;;;;;;;2.22;1.00;;;;;;;;;;4988332;28;20065;-62
2022/07/15 04:58:45;;;;;;;2.30;0.80;;;;;;;;;;4978423;28;20066;-65
2022/07/15 05:01:11;;;;;;;1.63;0.80;;;;;;;;;;4977723;28;20070;-65
2022/07/15 05:03:38;;;;;;;3.72;0.95;;;;;;;;;;4970074;28;20082;-65
2022/07/15 05:06:06;;;;;;;2.20;0.95;;;;;;;;;;4965381;28;20210;-65
2022/07/15 05:08:33;;;;;;;2.92;0.93;;;;;;;;;;4972472;28;20125;-65
2022/07/15 05:10:59;;;;;;;1.88;0.82;;;;;;;;;;4968975;28;20074;-63
2022/07/15 05:13:26;;;;;;;5.20;1.02;;;;;;;;;;4979010;28;20054;-62
2022/07/15 05:15:53;;;;;;;3.25;1.30;;;;;;;;;;4960730;28;20050;-64
2022/07/15 05:18:19;;;;;;;5.43;1.15;;;;;;;;;;4981440;28;20074;-63
2022/07/15 05:20:46;;;;;;;4.38;1.08;;;;;;;;;;4971499;28;20073;-65
2022/07/15 05:23:14;;;;;;;4.78;1.08;;;;;;;;;;4977546;28;20051;-65
2022/07/15 05:25:40;;;;;;;3.75;1.45;;;;;;;;;;4970402;28;20054;-65
2022/07/15 05:28:08;;;;;;;2.53;0.95;;;;;;;;;;4968131;28;20056;-65
2022/07/15 05:30:37;;;;;;;5.32;1.10;;;;;;;;;;4974635;28;20054;-64
2022/07/15 05:33:03;;;;;;;;;;;;;;;;;;4963179;28;20161;-64
2022/07/15 05:35:30;;;;;;;3.35;0.80;;;;;;;;;;4976456;28;19933;-65
2022/07/15 05:37:56;;;;;;;2.22;0.88;;;;;;;;;;4957387;28;20062;-63
2022/07/15 05:40:26;;;;;;;4.93;1.90;;;;;;;;;;4985368;28;20050;-65
2022/07/15 05:42:53;;;;;;;5.30;1.95;;;;;;;;;;4972151;28;20111;-67
2022/07/15 05:45:20;;;;;;;2.92;1.00;;;;;;;;;;4968721;28;20059;-64
2022/07/15 05:47:49;;;;;;;3.33;1.00;;;;;;;;;;4966031;28;20057;-62
2022/07/15 05:50:18;;;;;;;3.72;1.08;;;;;;;;;;4980414;28;20055;-65
2022/07/15 05:52:44;;;;;;;;;;;;;;;;;;4971762;28;20051;-65
2022/07/15 05:55:11;;;;;;;2.60;1.08;;;;;;;;;;4971032;28;19929;-65
2022/07/15 05:57:39;;;;;;;5.40;1.10;;;;;;;;;;4970048;28;20043;-63
2022/07/15 06:00:12;;;;;;;6.00;1.02;;;;;;;;;;4962724;28;20130;-65
2022/07/15 06:02:39;;;;;;;1.83;1.10;;;;;;;;;;4970169;28;20050;-65
2022/07/15 06:05:06;;;;;;;3.03;1.00;;;;;;;;;;4956632;28;20061;-65
2022/07/15 06:07:33;;;;;;;5.93;1.13;;;;;;;;;;4990009;28;20062;-66
2022/07/15 06:09:59;;;;;;;4.00;1.15;;;;;;;;;;4980685;28;20050;-65
2022/07/15 06:12:26;;;;;;;2.97;1.00;;;;;;;;;;4969540;28;20070;-66
2022/07/15 06:14:55;;;;;;;6.80;1.30;;;;;;;;;;4963441;28;20059;-65
2022/07/15 06:17:21;;;;;;;5.15;1.10;;;;;;;;;;4968054;28;20058;-65
2022/07/15 06:19:48;;;;;;;6.30;1.25;;;;;;;;;;4963518;28;20101;-65
2022/07/15 06:22:14;;;;;;;10.75;2.08;;;;;;;;;;4968655;28;20047;-64
2022/07/15 06:24:41;;;;;;;5.60;1.15;;;;;;;;;;4970882;28;20058;-64
2022/07/15 06:27:08;;;;;;;10.40;1.63;;;;;;;;;;4965493;28;20067;-65
2022/07/15 06:29:57;;;;;;;5.47;1.17;;;;;;;;;;4973396;28;20050;-64
2022/07/15 06:32:25;;;;;;;4.30;1.10;;;;;;;;;;4913814;28;20058;-65
2022/07/15 06:34:52;;;;;;;3.60;1.25;;;;;;;;;;4970606;28;20055;-65
2022/07/15 06:37:19;;;;;;;2.03;0.80;;;;;;;;;;4976439;28;20097;-65
2022/07/15 06:39:53;;;;;;;6.63;1.50;;;;;;;;;;4971582;28;20117;-65
2022/07/15 06:42:19;;;;;;;3.60;1.10;;;;;;;;;;4973956;28;20058;-65
2022/07/15 06:44:46;;;;;;;3.05;0.90;;;;;;;;;;4983045;28;20088;-65
2022/07/15 06:47:12;;;;;;;2.25;0.90;;;;;;;;;;4993543;28;20050;-64
2022/07/15 06:49:43;;;;;;;4.10;1.20;;;;;;;;;;4986030;28;20055;-65
2022/07/15 06:52:09;;;;;;;3.45;1.00;;;;;;;;;;4988488;28;20057;-63
2022/07/15 06:54:36;;;;;;;3.97;1.13;;;;;;;;;;5009254;28;20050;-65
2022/07/15 06:57:02;;;;;;;4.22;1.15;;;;;;;;;;4980753;28;20054;-65
2022/07/15 06:59:30;;;;;;;5.13;1.60;;;;;;;;;;4993426;28;20054;-64
2022/07/15 07:01:57;;;;;;;3.43;1.10;;;;;;;;;;4971114;28;20046;-65
2022/07/15 07:04:23;;;;;;;7.53;1.05;;;;;;;;;;4967095;28;20093;-64
2022/07/15 07:06:51;;;;;;;3.47;0.80;;;;;;;;;;4977518;28;20046;-64
2022/07/15 07:09:19;;;;;;;2.28;1.10;;;;;;;;;;4992464;28;20061;-64
2022/07/15 07:11:45;;;;;;;11.40;1.40;;;;;;;;;;4983661;28;20058;-65
2022/07/15 07:14:13;;;;;;;3.97;1.02;;;;;;;;;;4973919;28;20063;-64
2022/07/15 07:16:39;;;;;;;5.32;1.30;;;;;;;;;;4973592;28;20138;-65
2022/07/15 07:19:18;;;;;;;4.13;0.85;;;;;;;;;;4965856;28;20055;-64
2022/07/15 07:21:45;;;;;;;5.03;0.80;;;;;;;;;;4971285;28;20051;-65
2022/07/15 07:24:13;;;;;;;2.58;0.77;;;;;;;;;;4965838;28;20055;-65
2022/07/15 07:26:39;;;;;;;2.50;1.00;;;;;;;;;;4972215;28;20050;-64
2022/07/15 07:29:06;;;;;;;4.45;1.00;;;;;;;;;;4965362;28;20062;-65
2022/07/15 07:31:32;;;;;;;3.60;0.90;;;;;;;;;;4974951;28;20055;-63
2022/07/15 07:34:00;;;;;;;5.90;1.08;;;;;;;;;;4979344;28;20109;-63
2022/07/15 07:36:27;;;;;;;8.07;1.10;;;;;;;;;;4992127;28;20078;-63
2022/07/15 07:39:03;;;;;;;10.85;0.85;;;;;;;;;;4984424;28;20096;-63
2022/07/15 07:41:31;;;;;;;5.68;1.00;;;;;;;;;;4986486;28;20050;-64
2022/07/15 07:43:58;;;;;;;3.13;0.88;;;;;;;;;;4965558;28;20046;-63
2022/07/15 07:46:24;;;;;;;4.93;1.15;;;;;;;;;;4969574;28;20054;-65
2022/07/15 07:48:57;;;;;;;8.10;1.25;;;;;;;;;;4965076;28;20038;-65
2022/07/15 07:51:24;;;;;;;4.95;0.90;;;;;;;;;;4973658;28;20062;-65
2022/07/15 07:53:50;;;;;;;3.65;0.70;;;;;;;;;;4984232;28;20050;-64
2022/07/15 07:56:17;;;;;;;5.88;0.93;;;;;;;;;;4985028;28;20129;-65
2022/07/15 07:58:47;;;;;;;9.85;0.90;;;;;;;;;;4971145;28;20051;-65
2022/07/15 08:01:14;;;;;;;3.03;0.60;;;;;;;;;;4967422;28;20134;-64
2022/07/15 08:03:41;;;;;;;4.50;1.00;;;;;;;;;;4982397;28;20089;-65
2022/07/15 08:06:08;;;;;;;2.47;0.77;;;;;;;;;;4986200;28;20133;-64
2022/07/15 08:08:45;;;;;;;4.47;0.85;;;;;;;;;;4994466;28;20065;-65
2022/07/15 08:11:12;;;;;;;8.32;1.45;;;;;;;;;;4968159;28;20051;-66
2022/07/15 08:13:39;;;;;;;2.88;0.65;;;;;;;;;;4972711;28;20066;-65
2022/07/15 08:16:08;;;;;;;2.72;0.70;;;;;;;;;;4986654;28;20051;-65
2022/07/15 08:18:37;;;;;;;;;;;;;;;;;;5005727;28;20054;-65
2022/07/15 08:21:04;;;;;;;3.15;0.73;;;;;;;;;;4965679;28;19953;-65
2022/07/15 08:23:32;;;;;;;5.63;0.95;;;;;;;;;;4971253;28;20042;-64
2022/07/15 08:25:58;;;;;;;2.65;0.98;;;;;;;;;;4976664;28;20046;-64
2022/07/15 08:28:25;;;;;;;4.45;0.80;;;;;;;;;;4991952;28;20077;-65
2022/07/15 08:30:52;;;;;;;6.82;0.88;;;;;;;;;;4985713;28;20050;-64
2022/07/15 08:33:19;;;;;;;5.35;0.73;;;;;;;;;;4982534;28;20082;-64
2022/07/15 08:35:46;;;;;;;3.30;0.80;;;;;;;;;;4961598;28;20062;-64
2022/07/15 08:38:13;;;;;;;1.98;0.73;;;;;;;;;;4991005;28;20050;-64
2022/07/15 08:40:40;;;;;;;10.23;1.25;;;;;;;;;;4986247;28;20050;-64
2022/07/15 08:43:08;;;;;;;11.98;1.23;;;;;;;;;;4985828;28;20082;-64
2022/07/15 08:45:36;;;;;;;5.18;0.60;;;;;;;;;;4987687;28;20046;-65
2022/07/15 08:48:04;;;;;;;3.35;0.75;;;;;;;;;;4994089;28;20057;-64
2022/07/15 08:50:37;;;;;;;4.65;0.93;;;;;;;;;;4987674;28;20050;-64
2022/07/15 08:53:04;;;;;;;3.72;0.80;;;;;;;;;;4995115;28;20104;-64
2022/07/15 08:55:31;;;;;;;1.83;0.60;;;;;;;;;;4988935;28;20041;-64
2022/07/15 08:57:57;;;;;;;2.38;0.60;;;;;;;;;;4983271;28;20050;-64
2022/07/15 09:00:29;;;;;;;5.35;0.88;;;;;;;;;;4990240;28;20056;-64
2022/07/15 09:02:57;;;;;;;3.25;0.82;;;;;;;;;;4982626;28;20117;-64
2022/07/15 09:05:26;;;;;;;2.23;0.53;;;;;;;;;;4990627;28;20050;-65
2022/07/15 09:07:59;;;;;;;2.78;0.80;;;;;;;;;;4978089;28;20137;-64
2022/07/15 09:10:42;;;;;;;3.22;0.70;;;;;;;;;;4989628;28;20050;-65
2022/07/15 09:13:09;;;;;;;1.77;0.80;;;;;;;;;;4981161;28;20126;-65
2022/07/15 09:15:36;;;;;;;5.68;1.00;;;;;;;;;;4990032;28;20082;-64
2022/07/15 09:18:07;;;;;;;2.50;0.60;;;;;;;;;;4978414;28;20058;-64
2022/07/15 09:20:40;;;;;;;2.00;0.60;;;;;;;;;;4990829;28;20046;-65
2022/07/15 09:23:09;;;;;;;2.83;0.68;;;;;;;;;;4980311;28;20042;-65
2022/07/15 09:25:36;;;;;;;1.98;0.60;;;;;;;;;;4990608;28;20066;-65
2022/07/15 09:28:03;;;;;;;2.15;0.80;;;;;;;;;;4979477;28;20069;-65
2022/07/15 09:33:36;;;;;;;2.83;0.70;;;;;;;;;;4983043;28;20054;-65
2022/07/15 09:36:05;;;;;;;3.75;0.80;;;;;;;;;;4984879;28;20062;-64
2022/07/15 09:38:46;;;;;;;2.65;0.70;;;;;;;;;;4985378;28;20047;-65
2022/07/15 09:41:15;;;;;;;6.70;0.93;;;;;;;;;;4986469;28;20042;-65
2022/07/15 09:43:49;;;;;;;5.38;0.95;;;;;;;;;;4985543;28;20042;-65
2022/07/15 09:46:16;;;;;;;1.92;0.65;;;;;;;;;;4986387;28;20054;-64
2022/07/15 09:48:43;;;;;;;2.15;0.73;;;;;;;;;;4985594;28;20053;-64
2022/07/15 09:51:11;;;;;;;3.72;0.80;;;;;;;;;;4985574;28;20069;-64
2022/07/15 09:53:40;;;;;;;1.45;0.50;;;;;;;;;;4987375;28;20073;-64
2022/07/15 09:56:06;;;;;;;;;;;;;;;;;;4993367;28;20050;-64
2022/07/15 09:58:42;;;;;;;1.97;0.80;;;;;;;;;;4985784;28;19932;-64
2022/07/15 10:01:10;;;;;;;1.20;0.52;;;;;;;;;;4985436;28;20328;-64
2022/07/15 10:03:38;;;;;;;3.10;0.75;;;;;;;;;;4973642;28;20141;-64
2022/07/15 10:06:05;;;;;;;2.80;0.57;;;;;;;;;;4940653;28;20067;-64
2022/07/15 10:08:32;;;;;;;4.50;0.55;;;;;;;;;;4951703;28;20066;-64
2022/07/15 10:10:59;;;;;;;2.40;0.60;;;;;;;;;;4935769;29;20134;-65
2022/07/15 10:13:35;;;;;;;2.72;0.60;;;;;;;;;;4935416;29;20051;-64
2022/07/15 10:16:11;;;;;;;3.50;0.77;;;;;;;;;;4944150;28;20123;-64
2022/07/15 10:18:49;;;;;;;3.25;0.85;;;;;;;;;;4956909;28;20059;-64
2022/07/15 10:21:21;;;;;;;2.95;0.65;;;;;;;;;;4947954;29;20051;-64
2022/07/15 10:24:06;;;;;;;1.50;0.50;;;;;;;;;;4951851;29;20063;-64
2022/07/15 10:26:40;;;;;;;1.15;0.45;;;;;;;;;;4939606;28;20055;-64
2022/07/15 10:29:11;;;;;;;3.85;0.60;;;;;;;;;;4954613;29;20051;-63
2022/07/15 10:31:40;;;;;;;1.98;0.73;;;;;;;;;;4949857;28;20098;-64
2022/07/15 10:34:17;;;;;;;1.80;0.60;;;;;;;;;;4953599;29;20047;-66
2022/07/15 10:36:54;;;;;;;3.20;0.70;;;;;;;;;;4951303;28;20067;-66
2022/07/15 10:39:29;;;;;;;5.65;0.75;;;;;;;;;;4955714;29;20101;-64
2022/07/15 10:41:57;;;;;;;6.13;0.70;;;;;;;;;;4934728;29;20055;-64
2022/07/15 10:44:25;;;;;;;2.35;0.60;;;;;;;;;;4950873;28;20134;-64
2022/07/15 10:47:06;;;;;;;2.88;0.57;;;;;;;;;;4954255;29;20162;-65
2022/07/15 10:49:35;;;;;;;2.58;0.77;;;;;;;;;;4935591;29;20051;-64
2022/07/15 10:52:13;;;;;;;1.92;0.75;;;;;;;;;;4935514;29;20052;-64
2022/07/15 10:54:49;;;;;;;2.77;0.50;;;;;;;;;;4937371;29;20054;-64
2022/07/15 10:57:19;;;;;;;4.38;0.80;;;;;;;;;;4932774;28;20059;-64
2022/07/15 10:59:55;;;;;;;0.82;0.50;;;;;;;;;;4938900;28;20043;-66
2022/07/15 11:02:23;;;;;;;1.83;0.50;;;;;;;;;;4957692;28;20050;-66
2022/07/15 11:04:51;;;;;;;2.30;0.52;;;;;;;;;;4965546;28;20070;-66
2022/07/15 11:07:30;;;;;;;4.18;0.85;;;;;;;;;;4953900;28;20110;-64
2022/07/15 11:09:58;;;;;;;1.92;0.70;;;;;;;;;;4941747;28;20120;-64
2022/07/15 11:12:45;;;;;;;3.95;0.75;;;;;;;;;;4949819;28;20059;-64
2022/07/15 11:15:12;;;;;;;4.68;0.80;;;;;;;;;;4956343;28;20130;-64
2022/07/15 11:17:39;;;;;;;2.42;0.60;;;;;;;;;;4954321;28;20054;-64
2022/07/15 11:20:23;;;;;;;6.32;1.00;;;;;;;;;;4956823;28;20046;-64
2022/07/15 11:22:51;;;;;;;1.98;0.60;;;;;;;;;;4975987;28;20050;-64
2022/07/15 11:25:19;;;;;;;3.10;0.90;;;;;;;;;;4992437;28;20112;-64
2022/07/15 11:27:55;;;;;;;1.27;0.45;;;;;;;;;;4978669;28;20047;-64
2022/07/15 11:30:22;;;;;;;1.83;0.65;;;;;;;;;;4975327;28;20054;-64
2022/07/15 11:32:55;;;;;;;2.53;0.75;;;;;;;;;;4977430;28;20072;-64
2022/07/15 11:35:23;;;;;;;1.58;0.63;;;;;;;;;;4976102;28;20046;-64
2022/07/15 11:37:50;;;;;;;;;;;;;;;;;;4971371;28;20054;-64
2022/07/15 11:45:47;;;;;;;3.33;0.70;;;;;;;;;;4989076;28;20094;-65
2022/07/15 11:48:14;;;;;;;3.80;0.80;;;;;;;;;;4986468;28;20050;-64
2022/07/15 11:50:51;;;;;;;1.83;0.70;;;;;;;;;;4991467;28;20050;-65
2022/07/15 11:53:18;;;;;;;1.45;0.50;;;;;;;;;;4982828;28;20061;-64
2022/07/15 11:55:49;;;;;;;1.38;0.70;;;;;;;;;;4995166;28;20053;-63
2022/07/15 11:58:16;;;;;;;6.13;1.40;;;;;;;;;;4983883;28;20050;-64
2022/07/15 12:00:52;;;;;;;2.25;0.68;;;;;;;;;;4974740;28;20089;-65
2022/07/15 12:03:18;;;;;;;2.70;0.73;;;;;;;;;;4978816;28;20046;-64
2022/07/15 12:06:00;;;;;;;2.13;0.70;;;;;;;;;;4992868;28;20046;-64
2022/07/15 12:08:49;;;;;;;1.23;0.50;;;;;;;;;;4983943;28;20053;-65
2022/07/15 12:11:17;;;;;;;5.35;0.68;;;;;;;;;;4986330;28;20093;-65
2022/07/15 12:13:43;;;;;;;;;;;;;;;;;;4989506;28;20092;-64
2022/07/15 12:16:10;;;;;;;5.40;0.60;;;;;;;;;;4970156;28;19926;-65
2022/07/15 12:18:42;;;;;;;2.00;0.77;;;;;;;;;;4969447;28;20146;-65
2022/07/15 12:21:09;;;;;;;1.77;0.40;;;;;;;;;;4986450;28;20053;-65
2022/07/15 12:23:36;;;;;;;1.00;0.60;;;;;;;;;;4987662;28;20053;-64
2022/07/15 12:26:08;;;;;;;1.45;0.52;;;;;;;;;;4981965;28;20047;-64
2022/07/15 12:28:35;;;;;;;1.05;0.50;;;;;;;;;;4971404;28;20050;-64
2022/07/15 12:31:02;;;;;;;1.50;0.67;;;;;;;;;;4984016;28;20060;-64
2022/07/15 12:33:33;;;;;;;3.17;0.60;;;;;;;;;;4985699;28;20049;-64
2022/07/15 12:36:13;;;;;;;1.90;0.60;;;;;;;;;;4979920;28;20054;-64
2022/07/15 12:38:40;;;;;;;3.42;0.50;;;;;;;;;;4987797;28;20125;-65
2022/07/15 12:41:10;;;;;;;1.70;0.60;;;;;;;;;;4978913;28;20331;-65
2022/07/15 12:43:54;;;;;;;1.77;0.60;;;;;;;;;;4988330;28;20054;-64
2022/07/15 12:46:21;;;;;;;2.40;0.73;;;;;;;;;;4980151;28;20109;-65
2022/07/15 12:48:50;;;;;;;0.50;0.38;;;;;;;;;;4990214;28;20050;-66
2022/07/15 12:51:17;;;;;;;4.25;0.95;;;;;;;;;;4985926;28;20073;-66
2022/07/15 12:53:45;;;;;;;1.13;0.50;;;;;;;;;;4993416;28;20102;-66
2022/07/15 12:56:14;;;;;;;2.13;0.50;;;;;;;;;;4985187;28;20050;-66
2022/07/15 12:58:43;;;;;;;0.45;0.45;;;;;;;;;;4991213;28;20118;-66
2022/07/15 13:01:11;;;;;;;2.05;0.70;;;;;;;;;;4978571;28;20050;-65
2022/07/15 13:03:37;;;;;;;3.75;0.50;;;;;;;;;;4985932;28;20062;-66
2022/07/15 13:06:05;;;;;;;0.82;0.40;;;;;;;;;;4975048;28;20051;-66
2022/07/15 13:08:34;;;;;;;4.10;0.65;;;;;;;;;;4991064;28;20050;-65
2022/07/15 13:11:05;;;;;;;0.90;0.43;;;;;;;;;;4977420;28;20058;-64
2022/07/15 13:13:34;;;;;;;2.60;0.50;;;;;;;;;;5006314;28;20065;-65
2022/07/15 13:16:01;;;;;;;2.28;0.40;;;;;;;;;;4982089;28;20094;-64
2022/07/15 13:18:48;;;;;;;1.75;0.50;;;;;;;;;;4970906;28;20054;-66
2022/07/15 13:21:15;;;;;;;1.92;0.50;;;;;;;;;;4967153;28;20046;-63
2022/07/15 13:23:41;;;;;;;3.03;0.88;;;;;;;;;;4968558;28;20058;-64
2022/07/15 13:26:08;;;;;;;4.20;0.60;;;;;;;;;;4966131;28;20054;-65
2022/07/15 13:28:36;;;;;;;0.68;0.38;;;;;;;;;;4976317;28;20054;-65
2022/07/15 13:31:03;;;;;;;1.38;0.60;;;;;;;;;;4984649;28;20058;-65
2022/07/15 13:33:31;;;;;;;0.70;0.40;;;;;;;;;;4982248;28;20060;-65
2022/07/15 13:35:58;;;;;;;1.63;0.43;;;;;;;;;;4964130;28;20074;-65
2022/07/15 13:38:24;;;;;;;3.28;0.50;;;;;;;;;;4969524;28;20053;-66
2022/07/15 13:40:51;;;;;;;3.30;0.45;;;;;;;;;;4977838;28;20054;-65
2022/07/15 13:43:18;;;;;;;0.32;0.32;;;;;;;;;;5006650;28;20050;-65
2022/07/15 13:45:46;;;;;;;2.45;0.40;;;;;;;;;;4982323;28;20145;-66
2022/07/15 13:48:13;;;;;;;0.65;0.47;;;;;;;;;;4984695;28;20065;-65
2022/07/15 13:53:24;;;;;;;0.77;0.55;;;;;;;;;;4985611;28;20050;-65
2022/07/15 13:55:52;;;;;;;1.63;0.55;;;;;;;;;;4971836;28;20058;-65
2022/07/15 13:58:18;;;;;;;0.70;0.50;;;;;;;;;;5005889;28;20125;-65
2022/07/15 14:00:46;;;;;;;2.60;0.40;;;;;;;;;;5005140;28;20074;-65
2022/07/15 14:03:13;;;;;;;2.63;0.55;;;;;;;;;;4961882;28;20063;-64
2022/07/15 14:05:40;;;;;;;4.30;0.85;;;;;;;;;;4970419;28;20043;-66
2022/07/15 14:08:07;;;;;;;1.85;0.70;;;;;;;;;;4970249;28;20109;-64
2022/07/15 14:10:34;;;;;;;1.63;0.45;;;;;;;;;;5005742;28;20038;-65
2022/07/15 14:13:00;;;;;;;1.90;0.60;;;;;;;;;;4973481;28;20058;-64
2022/07/15 14:15:27;;;;;;;2.20;0.70;;;;;;;;;;4970145;28;20035;-65
2022/07/15 14:17:55;;;;;;;5.97;0.80;;;;;;;;;;4961450;28;20058;-65
2022/07/15 14:20:22;;;;;;;2.28;0.88;;;;;;;;;;4970617;28;20051;-65
2022/07/15 14:22:49;;;;;;;1.63;0.70;;;;;;;;;;4987011;28;20042;-65
2022/07/15 14:25:15;;;;;;;7.18;1.00;;;;;;;;;;4985112;28;20064;-65
2022/07/15 14:27:42;;;;;;;1.70;0.73;;;;;;;;;;4989195;28;20244;-64
2022/07/15 14:30:10;;;;;;;2.70;0.80;;;;;;;;;;4983436;28;20135;-63
2022/07/15 14:32:37;;;;;;;2.65;0.82;;;;;;;;;;4988564;28;20152;-66
2022/07/15 14:35:06;;;;;;;1.27;0.73;;;;;;;;;;4978794;28;20371;-65
2022/07/15 14:37:33;;;;;;;2.58;0.80;;;;;;;;;;4989170;28;20112;-66
2022/07/15 14:40:01;;;;;;;1.55;0.80;;;;;;;;;;4977951;28;20054;-66
2022/07/15 14:42:28;;;;;;;5.65;0.90;;;;;;;;;;4989528;28;20058;-66
2022/07/15 14:44:54;;;;;;;2.05;0.65;;;;;;;;;;4984311;28;20104;-65
2022/07/15 14:47:21;;;;;;;2.17;0.60;;;;;;;;;;4989888;28;20054;-66
2022/07/15 14:49:48;;;;;;;2.60;0.95;;;;;;;;;;4985439;28;20042;-66
2022/07/15 14:52:16;;;;;;;2.25;0.70;;;;;;;;;;4991379;28;20054;-66
2022/07/15 14:54:42;;;;;;;;;;;;;;;;;;4981769;28;20145;-66
2022/07/15 14:57:09;;;;;;;3.63;1.00;;;;;;;;;;4987286;28;19921;-65
2022/07/15 14:59:39;;;;;;;2.15;0.80;;;;;;;;;;4992336;28;20077;-66
2022/07/15 15:02:07;;;;;;;2.88;1.23;;;;;;;;;;4981943;28;20062;-66
2022/07/15 15:04:34;;;;;;;2.05;0.80;;;;;;;;;;4993079;28;20065;-66
2022/07/15 15:07:00;;;;;;;2.17;0.73;;;;;;;;;;4981668;28;20058;-66